createdAt,value
2022-08-09T00:01:54.924Z,27.62
2022-08-09T00:04:35.029Z,27.60
2022-08-09T00:07:03.799Z,27.59
2022-08-09T00:09:40.123Z,27.57
2022-08-09T00:12:08.365Z,27.56
2022-08-09T00:14:39.348Z,27.46
2022-08-09T00:17:08.484Z,27.35
2022-08-09T00:19:57.529Z,27.32
2022-08-09T00:22:25.767Z,27.32
2022-08-09T00:25:12.836Z,27.26
2022-08-09T00:27:43.065Z,27.33
2022-08-09T00:30:24.942Z,27.22
2022-08-09T00:32:54.297Z,27.16
2022-08-09T00:35:24.792Z,27.15
2022-08-09T00:37:54.272Z,27.21
2022-08-09T00:40:22.481Z,27.19
2022-08-09T00:44:16.376Z,27.27
2022-08-09T00:45:54.185Z,27.33
2022-08-09T00:48:22.408Z,27.36
2022-08-09T00:50:52.391Z,27.39
2022-08-09T00:53:23.938Z,27.40
2022-08-09T00:56:05.425Z,27.39
2022-08-09T00:58:39.118Z,27.39
2022-08-09T01:01:15.950Z,27.39
2022-08-09T01:03:49.210Z,27.42
2022-08-09T01:06:22.417Z,27.43
2022-08-09T01:08:57.776Z,27.46
2022-08-09T01:11:35.115Z,27.48
2022-08-09T01:14:05.321Z,27.47
2022-08-09T01:16:37.069Z,27.47
2022-08-09T01:19:17.193Z,27.48
2022-08-09T01:22:16.452Z,27.48
2022-08-09T01:24:50.399Z,27.45
2022-08-09T01:27:23.848Z,27.42
2022-08-09T01:29:55.858Z,27.42
2022-08-09T01:32:31.362Z,27.44
2022-08-09T01:35:07.205Z,27.45
2022-08-09T01:38:08.023Z,27.43
2022-08-09T01:40:37.309Z,27.42
2022-08-09T01:43:06.732Z,27.41
2022-08-09T01:45:35.887Z,27.43
2022-08-09T01:48:16.100Z,27.43
2022-08-09T01:50:48.358Z,27.40
2022-08-09T01:53:19.995Z,27.40
2022-08-09T01:55:48.400Z,27.38
2022-08-09T01:58:18.851Z,27.37
2022-08-09T02:00:54.284Z,27.37
2022-08-09T02:03:22.629Z,27.36
2022-08-09T02:06:03.304Z,27.36
2022-08-09T02:08:38.437Z,27.35
2022-08-09T02:11:21.367Z,27.33
2022-08-09T02:14:06.124Z,27.23
2022-08-09T02:16:52.911Z,27.27
2022-08-09T02:19:38.500Z,27.29
2022-08-09T02:22:11.560Z,27.27
2022-08-09T02:24:39.653Z,27.25
2022-08-09T02:27:10.392Z,27.28
2022-08-09T02:29:42.764Z,27.27
2022-08-09T02:32:12.244Z,27.28
2022-08-09T02:34:55.999Z,27.29
2022-08-09T02:37:31.708Z,27.30
2022-08-09T02:40:09.297Z,27.34
2022-08-09T02:42:39.872Z,27.36
2022-08-09T02:45:12.870Z,27.21
2022-08-09T02:47:58.022Z,27.22
2022-08-09T02:50:28.471Z,27.25
2022-08-09T02:53:01.101Z,27.29
2022-08-09T02:55:46.588Z,27.25
2022-08-09T02:58:36.153Z,27.16
2022-08-09T03:01:10.657Z,27.09
2022-08-09T03:04:16.709Z,27.12
2022-08-09T03:06:29.015Z,27.12
2022-08-09T03:09:04.808Z,27.08
2022-08-09T03:12:05.311Z,27.07
2022-08-09T03:14:28.383Z,26.96
2022-08-09T03:16:58.198Z,27.03
2022-08-09T03:19:52.198Z,27.02
2022-08-09T03:22:25.015Z,27.03
2022-08-09T03:25:21.435Z,26.98
2022-08-09T03:27:50.050Z,26.96
2022-08-09T03:30:29.733Z,26.91
2022-08-09T03:33:12.730Z,26.98
2022-08-09T03:36:15.698Z,27.03
2022-08-09T03:38:42.705Z,27.03
2022-08-09T03:41:15.440Z,26.94
2022-08-09T03:44:03.285Z,26.93
2022-08-09T03:46:35.339Z,26.90
2022-08-09T03:49:07.973Z,26.94
2022-08-09T03:51:56.612Z,26.96
2022-08-09T03:54:31.384Z,26.98
2022-08-09T03:57:02.282Z,27.01
2022-08-09T03:59:43.001Z,26.98
2022-08-09T04:02:26.734Z,27.01
2022-08-09T04:05:06.621Z,27.03
2022-08-09T04:07:53.505Z,27.02
2022-08-09T04:10:28.841Z,27.01
2022-08-09T04:13:01.097Z,26.97
2022-08-09T04:16:17.651Z,26.93
2022-08-09T04:18:22.360Z,26.77
2022-08-09T04:20:55.759Z,26.71
2022-08-09T04:23:25.679Z,26.77
2022-08-09T04:25:54.219Z,26.78
2022-08-09T04:28:33.647Z,26.72
2022-08-09T04:31:09.243Z,26.77
2022-08-09T04:33:47.665Z,26.77
2022-08-09T04:36:25.583Z,26.41
2022-08-09T04:38:55.307Z,25.64
2022-08-09T04:41:24.314Z,25.45
2022-08-09T04:44:06.262Z,25.62
2022-08-09T04:46:58.170Z,25.21
2022-08-09T04:49:52.836Z,24.48
2022-08-09T04:52:26.599Z,24.56
2022-08-09T04:54:56.213Z,24.77
2022-08-09T04:57:25.608Z,24.65
2022-08-09T04:59:55.861Z,24.32
2022-08-09T05:02:27.464Z,24.46
2022-08-09T05:04:56.315Z,24.73
2022-08-09T05:07:29.100Z,24.31
2022-08-09T05:10:01.740Z,24.20
2022-08-09T05:12:35.354Z,24.30
2022-08-09T05:15:11.486Z,24.09
2022-08-09T05:18:37.560Z,24.31
2022-08-09T05:20:29.991Z,24.35
2022-08-09T05:23:55.563Z,24.59
2022-08-09T05:25:51.345Z,24.43
2022-08-09T05:28:20.511Z,24.63
2022-08-09T05:30:51.537Z,24.62
2022-08-09T05:33:19.908Z,24.73
2022-08-09T05:35:57.179Z,24.87
2022-08-09T05:38:28.092Z,24.65
2022-08-09T05:40:57.561Z,24.71
2022-08-09T05:43:31.753Z,24.77
2022-08-09T05:46:01.739Z,24.59
2022-08-09T05:48:33.232Z,24.59
2022-08-09T05:51:43.175Z,24.77
2022-08-09T05:53:57.227Z,24.19
2022-08-09T05:56:28.337Z,24.10
2022-08-09T05:58:59.211Z,24.38
2022-08-09T06:01:33.784Z,24.51
2022-08-09T06:04:05.603Z,24.19
2022-08-09T06:06:34.423Z,24.30
2022-08-09T06:09:10.074Z,23.98
2022-08-09T06:11:57.047Z,24.24
2022-08-09T06:14:27.364Z,24.38
2022-08-09T06:16:59.588Z,24.18
2022-08-09T06:19:37.109Z,24.23
2022-08-09T06:22:06.226Z,24.22
2022-08-09T06:24:45.784Z,24.23
2022-08-09T06:27:18.615Z,24.55
2022-08-09T06:30:04.405Z,24.82
2022-08-09T06:33:00.608Z,25.01
2022-08-09T06:35:35.882Z,25.18
2022-08-09T06:38:15.939Z,25.32
2022-08-09T06:40:45.818Z,25.41
2022-08-09T06:43:14.196Z,25.50
2022-08-09T06:46:07.723Z,25.59
2022-08-09T06:48:31.301Z,25.66
2022-08-09T06:50:59.761Z,25.75
2022-08-09T06:53:33.400Z,25.82
2022-08-09T06:56:09.088Z,25.87
2022-08-09T07:00:49.453Z,25.92
2022-08-09T07:01:35.661Z,25.98
2022-08-09T07:04:20.163Z,26.04
2022-08-09T07:06:48.496Z,26.07
2022-08-09T07:09:55.497Z,26.10
2022-08-09T07:12:17.552Z,26.16
2022-08-09T07:14:50.690Z,26.18
2022-08-09T07:17:19.831Z,26.21
2022-08-09T07:19:48.221Z,26.23
2022-08-09T07:22:18.679Z,26.27
2022-08-09T07:25:05.122Z,26.30
2022-08-09T07:27:42.891Z,26.34
2022-08-09T07:30:21.698Z,26.37
2022-08-09T07:32:53.307Z,26.42
2022-08-09T07:35:22.905Z,26.44
2022-08-09T07:37:50.970Z,26.46
2022-08-09T07:40:26.972Z,26.49
2022-08-09T07:43:03.458Z,26.51
2022-08-09T07:45:42.665Z,26.55
2022-08-09T07:48:22.434Z,26.58
2022-08-09T07:51:09.560Z,26.58
2022-08-09T07:54:05.178Z,26.60
2022-08-09T07:56:34.646Z,26.62
2022-08-09T07:59:14.072Z,26.64
2022-08-09T08:01:55.740Z,26.67
2022-08-09T08:04:25.567Z,26.67
2022-08-09T08:07:27.128Z,26.69
2022-08-09T08:09:53.371Z,26.71
2022-08-09T08:12:36.468Z,26.72
2022-08-09T08:15:07.561Z,26.74
2022-08-09T08:17:54.462Z,26.76
2022-08-09T08:20:27.265Z,26.79
2022-08-09T08:22:58.713Z,26.80
2022-08-09T08:25:43.902Z,26.80
2022-08-09T08:28:14.927Z,26.84
2022-08-09T08:30:44.943Z,26.84
2022-08-09T08:33:21.785Z,26.85
2022-08-09T08:35:59.531Z,26.86
2022-08-09T08:38:28.882Z,26.88
2022-08-09T08:40:57.335Z,26.89
2022-08-09T08:43:27.183Z,26.89
2022-08-09T08:46:00.133Z,26.91
2022-08-09T08:48:51.870Z,26.93
2022-08-09T08:51:22.575Z,26.93
2022-08-09T08:54:02.657Z,26.95
2022-08-09T08:56:32.161Z,26.95
2022-08-09T08:59:01.568Z,26.96
2022-08-09T09:01:52.426Z,26.98
2022-08-09T09:04:26.808Z,27.01
2022-08-09T09:06:56.934Z,27.02
2022-08-09T09:09:57.792Z,27.06
2022-08-09T09:12:16.934Z,27.09
2022-08-09T09:14:45.275Z,27.11
2022-08-09T09:17:16.339Z,27.11
2022-08-09T09:19:44.675Z,27.13
2022-08-09T09:22:15.864Z,27.12
2022-08-09T09:24:44.887Z,27.15
2022-08-09T09:28:02.787Z,27.14
2022-08-09T09:30:22.775Z,27.14
2022-08-09T09:33:23.975Z,27.15
2022-08-09T09:36:01.658Z,27.16
2022-08-09T09:38:44.663Z,27.16
2022-08-09T09:41:12.852Z,27.16
2022-08-09T09:44:10.302Z,27.18
2022-08-09T09:46:50.558Z,27.19
2022-08-09T09:49:31.913Z,27.19
2022-08-09T09:52:16.353Z,27.20
2022-08-09T09:55:02.661Z,27.20
2022-08-09T09:58:00.979Z,27.20
2022-08-09T10:00:33.801Z,27.23
2022-08-09T10:03:09.215Z,27.23
2022-08-09T10:06:05.172Z,27.24
2022-08-09T10:08:54.280Z,27.23
2022-08-09T10:12:00.613Z,27.24
2022-08-09T10:14:30.464Z,27.26
2022-08-09T10:17:11.519Z,27.27
2022-08-09T10:19:52.830Z,27.27
2022-08-09T10:22:34.601Z,27.30
2022-08-09T10:25:11.120Z,27.30
2022-08-09T10:27:45.202Z,27.31
2022-08-09T10:32:00.075Z,27.32
2022-08-09T10:33:29.847Z,27.33
2022-08-09T10:36:00.885Z,27.34
2022-08-09T10:38:43.191Z,27.35
2022-08-09T10:41:20.593Z,27.36
2022-08-09T10:44:00.889Z,27.36
2022-08-09T10:46:55.614Z,27.38
2022-08-09T10:49:50.283Z,27.39
2022-08-09T10:52:30.907Z,27.40
2022-08-09T10:55:19.476Z,27.40
2022-08-09T10:57:51.713Z,27.43
2022-08-09T11:00:37.538Z,27.42
2022-08-09T11:03:27.317Z,27.44
2022-08-09T11:06:22.983Z,27.45
2022-08-09T11:08:53.961Z,27.45
2022-08-09T11:11:24.123Z,27.47
2022-08-09T11:14:29.003Z,27.48
2022-08-09T11:17:00.261Z,27.49
2022-08-09T11:20:11.619Z,27.50
2022-08-09T11:23:07.140Z,27.52
2022-08-09T11:25:47.473Z,27.52
2022-08-09T11:28:55.815Z,27.54
2022-08-09T11:31:49.413Z,27.55
2022-08-09T11:34:36.582Z,27.56
2022-08-09T11:37:07.314Z,27.57
2022-08-09T11:40:02.887Z,27.59
2022-08-09T11:42:46.999Z,27.59
2022-08-09T11:45:21.966Z,27.61
2022-08-09T11:47:50.595Z,27.62
2022-08-09T11:50:54.792Z,27.62
2022-08-09T11:53:28.031Z,27.64
2022-08-09T11:56:41.468Z,27.63
2022-08-09T11:59:12.360Z,27.65
2022-08-09T12:02:34.305Z,27.67
2022-08-09T12:04:37.531Z,27.68
2022-08-09T12:07:12.096Z,27.69
2022-08-09T12:09:50.494Z,27.70
2022-08-09T12:12:28.595Z,27.72
2022-08-09T12:15:08.009Z,27.72
2022-08-09T12:17:45.671Z,27.74
2022-08-09T12:20:22.407Z,27.74
2022-08-09T12:22:51.395Z,27.74
2022-08-09T12:25:36.420Z,27.75
2022-08-09T12:29:12.072Z,27.75
2022-08-09T12:30:58.806Z,27.75
2022-08-09T12:33:51.405Z,27.77
2022-08-09T12:36:27.727Z,27.76
2022-08-09T12:39:00.826Z,27.77
2022-08-09T12:41:30.382Z,27.79
2022-08-09T12:44:06.390Z,27.80
2022-08-09T12:46:36.189Z,27.81
2022-08-09T12:49:07.265Z,27.82
2022-08-09T12:52:00.064Z,27.84
2022-08-09T12:54:23.991Z,27.83
2022-08-09T12:56:54.062Z,27.85
2022-08-09T12:59:23.292Z,27.86
2022-08-09T13:02:02.620Z,27.88
2022-08-09T13:04:37.988Z,27.88
2022-08-09T13:07:13.804Z,27.89
2022-08-09T13:09:52.782Z,27.89
2022-08-09T13:12:24.099Z,27.90
2022-08-09T13:14:54.931Z,27.91
2022-08-09T13:17:58.627Z,27.92
2022-08-09T13:20:16.303Z,27.91
2022-08-09T13:23:05.677Z,27.91
2022-08-09T13:25:42.622Z,27.93
2022-08-09T13:28:18.745Z,27.93
2022-08-09T13:32:15.937Z,27.95
2022-08-09T13:33:54.384Z,27.96
2022-08-09T13:36:41.134Z,27.97
2022-08-09T13:41:17.364Z,27.99
2022-08-09T13:42:03.750Z,28.00
2022-08-09T13:44:32.076Z,28.03
2022-08-09T13:47:27.063Z,28.03
2022-08-09T13:49:56.500Z,28.05
2022-08-09T13:52:27.524Z,28.06
2022-08-09T13:55:00.898Z,28.06
2022-08-09T13:57:35.632Z,28.07
2022-08-09T14:00:06.979Z,28.08
2022-08-09T14:02:36.169Z,28.09
2022-08-09T14:05:13.505Z,28.08
2022-08-09T14:08:01.509Z,28.09
2022-08-09T14:10:46.100Z,28.09
2022-08-09T14:13:21.882Z,28.10
2022-08-09T14:16:10.131Z,28.11
2022-08-09T14:18:38.768Z,28.10
2022-08-09T14:21:17.272Z,28.12
2022-08-09T14:23:55.144Z,28.15
2022-08-09T14:26:30.294Z,28.14
2022-08-09T14:29:02.603Z,28.15
2022-08-09T14:31:35.730Z,28.16
2022-08-09T14:34:31.760Z,28.17
2022-08-09T14:37:02.057Z,28.18
2022-08-09T14:39:45.883Z,28.21
2022-08-09T14:42:30.134Z,28.21
2022-08-09T14:46:57.171Z,28.23
2022-08-09T14:47:57.293Z,28.22
2022-08-09T14:50:28.485Z,28.23
2022-08-09T14:52:56.534Z,28.25
2022-08-09T14:55:31.944Z,28.26
2022-08-09T14:58:03.276Z,28.28
2022-08-09T15:00:32.358Z,28.30
2022-08-09T15:03:01.886Z,28.33
2022-08-09T15:05:32.094Z,28.35
2022-08-09T15:08:00.048Z,28.38
2022-08-09T15:10:31.595Z,28.38
2022-08-09T15:12:59.944Z,28.42
2022-08-09T15:15:29.730Z,28.43
2022-08-09T15:18:02.610Z,28.45
2022-08-09T15:21:57.535Z,28.46
2022-08-09T15:24:02.953Z,28.45
2022-08-09T15:26:19.091Z,28.46
2022-08-09T15:28:56.511Z,28.47
2022-08-09T15:31:40.408Z,28.48
2022-08-09T15:34:27.431Z,28.49
2022-08-09T15:36:58.683Z,28.47
2022-08-09T15:39:43.880Z,28.48
2022-08-09T15:42:16.143Z,28.47
2022-08-09T15:44:47.191Z,28.48
2022-08-09T15:47:23.504Z,28.48
2022-08-09T15:50:05.017Z,28.47
2022-08-09T15:52:34.619Z,28.48
2022-08-09T15:55:02.973Z,28.48
2022-08-09T15:57:35.350Z,28.47
2022-08-09T16:00:15.257Z,28.46
2022-08-09T16:02:53.587Z,28.46
2022-08-09T16:05:22.976Z,28.47
2022-08-09T16:07:51.292Z,28.45
2022-08-09T16:10:54.756Z,28.44
2022-08-09T16:13:18.377Z,28.44
2022-08-09T16:16:10.788Z,28.43
2022-08-09T16:18:35.071Z,28.43
2022-08-09T16:21:03.083Z,28.43
2022-08-09T16:23:31.320Z,28.44
2022-08-09T16:26:01.049Z,28.43
2022-08-09T16:28:32.377Z,28.42
2022-08-09T16:31:00.373Z,28.42
2022-08-09T16:33:30.927Z,28.41
2022-08-09T16:36:08.450Z,28.38
2022-08-09T16:38:39.997Z,28.39
2022-08-09T16:41:08.094Z,28.38
2022-08-09T16:43:46.754Z,28.37
2022-08-09T16:46:18.419Z,28.35
2022-08-09T16:48:54.001Z,28.33
2022-08-09T16:51:27.455Z,28.34
2022-08-09T16:54:25.187Z,28.32
2022-08-09T16:56:49.434Z,28.33
2022-08-09T16:59:19.500Z,28.33
2022-08-09T17:01:51.377Z,28.33
2022-08-09T17:04:26.066Z,28.33
2022-08-09T17:08:43.669Z,28.32
2022-08-09T17:09:47.436Z,28.32
2022-08-09T17:12:16.043Z,28.32
2022-08-09T17:14:47.862Z,28.32
2022-08-09T17:17:26.922Z,28.30
2022-08-09T17:20:29.289Z,28.29
2022-08-09T17:22:49.969Z,28.27
2022-08-09T17:25:19.249Z,28.27
2022-08-09T17:27:48.930Z,28.26
2022-08-09T17:30:19.835Z,28.25
2022-08-09T17:32:48.545Z,28.25
2022-08-09T17:35:16.610Z,28.25
2022-08-09T17:38:11.635Z,28.25
2022-08-09T17:40:34.547Z,28.24
2022-08-09T17:43:03.265Z,28.23
2022-08-09T17:46:03.738Z,28.24
2022-08-09T17:48:28.806Z,28.24
2022-08-09T17:51:01.717Z,28.22
2022-08-09T17:53:43.479Z,28.23
2022-08-09T17:56:20.732Z,28.22
2022-08-09T17:58:48.773Z,28.23
2022-08-09T18:01:23.169Z,28.23
2022-08-09T18:03:54.599Z,28.22
2022-08-09T18:06:31.068Z,27.82
2022-08-09T18:09:01.943Z,27.27
2022-08-09T18:12:05.085Z,26.84
2022-08-09T18:14:20.657Z,26.27
2022-08-09T18:16:54.922Z,26.09
2022-08-09T18:20:55.189Z,26.10
2022-08-09T18:22:17.295Z,26.08
2022-08-09T18:24:46.513Z,25.95
2022-08-09T18:27:33.675Z,25.70
2022-08-09T18:30:40.619Z,25.38
2022-08-09T18:32:54.305Z,25.56
2022-08-09T18:35:59.900Z,25.04
2022-08-09T18:38:11.821Z,24.81
2022-08-09T18:40:40.752Z,24.75
2022-08-09T18:43:10.261Z,25.06
2022-08-09T18:46:49.930Z,25.13
2022-08-09T18:48:30.436Z,25.08
2022-08-09T18:51:01.255Z,24.65
2022-08-09T18:53:56.966Z,24.71
2022-08-09T18:56:20.095Z,24.67
2022-08-09T18:58:56.576Z,24.56
2022-08-09T19:01:24.668Z,24.54
2022-08-09T19:04:01.196Z,24.62
2022-08-09T19:06:34.722Z,24.59
2022-08-09T19:09:06.517Z,24.50
2022-08-09T19:11:35.390Z,24.42
2022-08-09T19:14:06.409Z,24.18
2022-08-09T19:16:36.333Z,24.56
2022-08-09T19:19:21.287Z,24.09
2022-08-09T19:22:04.750Z,24.21
2022-08-09T19:24:39.292Z,24.34
2022-08-09T19:27:23.199Z,24.23
2022-08-09T19:30:22.117Z,24.45
2022-08-09T19:32:40.298Z,24.33
2022-08-09T19:35:10.275Z,23.80
2022-08-09T19:37:41.073Z,23.87
2022-08-09T19:40:34.472Z,23.89
2022-08-09T19:43:05.347Z,23.64
2022-08-09T19:45:40.373Z,23.96
2022-08-09T19:48:10.723Z,23.96
2022-08-09T19:50:50.186Z,24.08
2022-08-09T19:53:21.493Z,23.94
2022-08-09T19:56:03.332Z,24.21
2022-08-09T19:58:35.795Z,24.25
2022-08-09T20:01:04.007Z,23.99
2022-08-09T20:04:17.373Z,23.97
2022-08-09T20:06:29.744Z,23.73
2022-08-09T20:08:59.672Z,23.53
2022-08-09T20:11:43.453Z,23.94
2022-08-09T20:14:16.512Z,24.33
2022-08-09T20:16:53.829Z,24.57
2022-08-09T20:19:48.599Z,24.77
2022-08-09T20:22:14.294Z,24.94
2022-08-09T20:24:42.997Z,25.06
2022-08-09T20:27:22.587Z,25.16
2022-08-09T20:29:50.701Z,25.25
2022-08-09T20:32:29.831Z,25.31
2022-08-09T20:35:07.472Z,25.40
2022-08-09T20:38:21.086Z,25.47
2022-08-09T20:40:27.691Z,25.55
2022-08-09T20:43:00.108Z,25.60
2022-08-09T20:45:59.385Z,25.65
2022-08-09T20:48:30.670Z,25.72
2022-08-09T20:51:01.296Z,25.78
2022-08-09T20:53:37.318Z,25.83
2022-08-09T20:56:20.835Z,25.86
2022-08-09T20:58:50.626Z,25.90
2022-08-09T21:01:35.466Z,25.95
2022-08-09T21:05:55.075Z,25.96
2022-08-09T21:06:59.067Z,25.99
2022-08-09T21:09:55.620Z,26.02
2022-08-09T21:15:14.223Z,26.09
2022-08-09T21:18:11.465Z,26.10
2022-08-09T21:20:30.887Z,26.12
2022-08-09T21:23:00.287Z,26.15
2022-08-09T21:25:55.386Z,26.17
2022-08-09T21:28:34.226Z,26.20
2022-08-09T21:31:17.344Z,26.21
2022-08-09T21:33:52.442Z,26.21
2022-08-09T21:36:25.741Z,26.23
2022-08-09T21:38:57.655Z,26.25
2022-08-09T21:42:04.189Z,26.27
2022-08-09T21:44:32.959Z,26.28
2022-08-09T21:47:03.958Z,26.30
2022-08-09T21:49:40.094Z,26.30
2022-08-09T21:52:16.578Z,26.31
2022-08-09T21:54:56.869Z,26.32
2022-08-09T21:57:39.169Z,26.34
2022-08-09T22:00:26.135Z,26.36
2022-08-09T22:02:58.111Z,26.36
2022-08-09T22:05:36.809Z,26.39
2022-08-09T22:08:13.667Z,26.38
2022-08-09T22:11:00.388Z,26.39
2022-08-09T22:13:34.533Z,26.37
2022-08-09T22:16:04.817Z,26.38
2022-08-09T22:18:37.089Z,26.38
2022-08-09T22:21:09.231Z,26.39
2022-08-09T22:23:59.632Z,26.39
2022-08-09T22:26:35.603Z,26.38
2022-08-09T22:29:09.088Z,26.37
2022-08-09T22:31:37.704Z,26.37
2022-08-09T22:34:14.901Z,26.38
2022-08-09T22:36:45.578Z,26.38
2022-08-09T22:39:46.876Z,26.39
2022-08-09T22:42:06.177Z,26.39
2022-08-09T22:44:45.869Z,26.41
2022-08-09T22:48:16.875Z,26.41
2022-08-09T22:50:01.881Z,26.41
2022-08-09T22:52:30.241Z,26.42
2022-08-09T22:55:00.103Z,26.43
2022-08-09T22:57:35.524Z,26.43
2022-08-09T23:00:06.351Z,26.43
2022-08-09T23:02:39.970Z,26.44
2022-08-09T23:05:13.088Z,26.45
2022-08-09T23:08:22.352Z,26.44
2022-08-09T23:10:49.662Z,26.43
2022-08-09T23:13:17.640Z,26.43
2022-08-09T23:16:02.597Z,26.43
2022-08-09T23:18:31.802Z,26.42
2022-08-09T23:20:59.798Z,26.43
2022-08-09T23:23:27.752Z,26.42
2022-08-09T23:25:55.881Z,26.43
2022-08-09T23:28:23.983Z,26.42
2022-08-09T23:30:53.427Z,26.42
2022-08-09T23:33:21.525Z,26.42
2022-08-09T23:36:05.519Z,26.41
2022-08-09T23:38:35.394Z,26.42
2022-08-09T23:41:03.856Z,26.42
2022-08-09T23:43:31.930Z,26.42
2022-08-09T23:46:01.606Z,26.43
2022-08-09T23:48:29.664Z,26.43
2022-08-09T23:50:57.692Z,26.45
2022-08-09T23:53:25.707Z,26.44
2022-08-09T23:56:00.117Z,26.43
2022-08-09T23:58:29.998Z,26.44
